sensor_id;sensor_type;location;lat;lon;timestamp;temperature;humidity
76293;DHT22;67256;51.154;4.164;2024-03-02T00:00:21;9.50;99.90
76293;DHT22;67256;51.154;4.164;2024-03-02T00:02:49;9.50;99.90
76293;DHT22;67256;51.154;4.164;2024-03-02T00:05:19;9.50;99.90
76293;DHT22;67256;51.154;4.164;2024-03-02T00:07:47;9.20;99.90
76293;DHT22;67256;51.154;4.164;2024-03-02T00:10:20;9.40;99.90
76293;DHT22;67256;51.154;4.164;2024-03-02T00:12:49;9.40;99.90
76293;DHT22;67256;51.154;4.164;2024-03-02T00:18:12;9.40;99.90
76293;DHT22;67256;51.154;4.164;2024-03-02T00:20:38;9.20;99.90
76293;DHT22;67256;51.154;4.164;2024-03-02T00:23:06;9.20;99.90
76293;DHT22;67256;51.154;4.164;2024-03-02T00:25:53;9.30;99.90
76293;DHT22;67256;51.154;4.164;2024-03-02T00:28:30;9.40;99.90
76293;DHT22;67256;51.154;4.164;2024-03-02T00:31:09;9.40;99.90
76293;DHT22;67256;51.154;4.164;2024-03-02T00:33:46;9.40;99.90
76293;DHT22;67256;51.154;4.164;2024-03-02T00:36:15;9.20;99.90
76293;DHT22;67256;51.154;4.164;2024-03-02T00:38:51;9.20;99.90
76293;DHT22;67256;51.154;4.164;2024-03-02T00:41:29;9.20;99.90
76293;DHT22;67256;51.154;4.164;2024-03-02T00:44:00;9.30;99.90
76293;DHT22;67256;51.154;4.164;2024-03-02T00:46:29;9.40;99.90
76293;DHT22;67256;51.154;4.164;2024-03-02T00:49:00;9.30;99.90
76293;DHT22;67256;51.154;4.164;2024-03-02T00:51:31;9.10;99.90
76293;DHT22;67256;51.154;4.164;2024-03-02T00:54:01;9.10;99.90
76293;DHT22;67256;51.154;4.164;2024-03-02T00:56:29;8.90;99.90
76293;DHT22;67256;51.154;4.164;2024-03-02T00:58:55;8.90;99.90
76293;DHT22;67256;51.154;4.164;2024-03-02T01:01:22;9.00;99.90
76293;DHT22;67256;51.154;4.164;2024-03-02T01:03:48;9.20;99.90
76293;DHT22;67256;51.154;4.164;2024-03-02T01:06:18;9.10;99.90
76293;DHT22;67256;51.154;4.164;2024-03-02T01:08:44;9.10;99.90
76293;DHT22;67256;51.154;4.164;2024-03-02T01:11:10;9.20;99.90
76293;DHT22;67256;51.154;4.164;2024-03-02T01:13:36;9.10;99.90
76293;DHT22;67256;51.154;4.164;2024-03-02T01:16:01;9.00;99.90
76293;DHT22;67256;51.154;4.164;2024-03-02T01:18:28;8.90;99.90
76293;DHT22;67256;51.154;4.164;2024-03-02T01:20:54;9.00;99.90
76293;DHT22;67256;51.154;4.164;2024-03-02T01:23:24;9.20;99.90
76293;DHT22;67256;51.154;4.164;2024-03-02T01:25:50;9.00;99.90
76293;DHT22;67256;51.154;4.164;2024-03-02T01:28:16;9.00;99.90
76293;DHT22;67256;51.154;4.164;2024-03-02T01:30:42;9.20;99.90
76293;DHT22;67256;51.154;4.164;2024-03-02T01:33:08;9.30;99.90
76293;DHT22;67256;51.154;4.164;2024-03-02T01:35:33;9.20;99.90
76293;DHT22;67256;51.154;4.164;2024-03-02T01:38:00;9.40;99.90
76293;DHT22;67256;51.154;4.164;2024-03-02T01:40:26;9.40;99.90
76293;DHT22;67256;51.154;4.164;2024-03-02T01:42:54;9.50;99.90
76293;DHT22;67256;51.154;4.164;2024-03-02T01:45:20;9.60;99.90
76293;DHT22;67256;51.154;4.164;2024-03-02T01:47:46;9.40;99.90
76293;DHT22;67256;51.154;4.164;2024-03-02T01:50:12;9.30;99.90
76293;DHT22;67256;51.154;4.164;2024-03-02T01:52:39;9.10;99.90
76293;DHT22;67256;51.154;4.164;2024-03-02T01:55:05;9.10;99.90
76293;DHT22;67256;51.154;4.164;2024-03-02T01:57:32;9.10;99.90
76293;DHT22;67256;51.154;4.164;2024-03-02T01:59:58;9.20;99.90
76293;DHT22;67256;51.154;4.164;2024-03-02T02:02:24;9.20;99.90
76293;DHT22;67256;51.154;4.164;2024-03-02T02:04:50;9.20;99.90
76293;DHT22;67256;51.154;4.164;2024-03-02T02:07:16;9.20;99.90
76293;DHT22;67256;51.154;4.164;2024-03-02T02:09:42;9.10;99.90
76293;DHT22;67256;51.154;4.164;2024-03-02T02:12:09;9.10;99.90
76293;DHT22;67256;51.154;4.164;2024-03-02T02:14:36;9.20;99.90
76293;DHT22;67256;51.154;4.164;2024-03-02T02:17:02;9.20;99.90
76293;DHT22;67256;51.154;4.164;2024-03-02T02:19:27;9.30;99.90
76293;DHT22;67256;51.154;4.164;2024-03-02T02:21:54;9.30;99.90
76293;DHT22;67256;51.154;4.164;2024-03-02T02:24:20;9.20;99.90
76293;DHT22;67256;51.154;4.164;2024-03-02T02:26:46;9.20;99.90
76293;DHT22;67256;51.154;4.164;2024-03-02T02:29:12;9.20;99.90
76293;DHT22;67256;51.154;4.164;2024-03-02T02:31:38;9.30;99.90
76293;DHT22;67256;51.154;4.164;2024-03-02T02:34:05;9.00;99.90
76293;DHT22;67256;51.154;4.164;2024-03-02T02:36:31;9.00;99.90
76293;DHT22;67256;51.154;4.164;2024-03-02T02:38:58;9.10;99.90
76293;DHT22;67256;51.154;4.164;2024-03-02T02:41:26;9.20;99.90
76293;DHT22;67256;51.154;4.164;2024-03-02T02:43:51;9.20;99.90
76293;DHT22;67256;51.154;4.164;2024-03-02T02:46:17;9.20;99.90
76293;DHT22;67256;51.154;4.164;2024-03-02T02:48:43;9.20;99.90
76293;DHT22;67256;51.154;4.164;2024-03-02T02:51:08;9.10;99.90
76293;DHT22;67256;51.154;4.164;2024-03-02T02:53:34;9.20;99.90
76293;DHT22;67256;51.154;4.164;2024-03-02T02:56:01;9.00;99.90
76293;DHT22;67256;51.154;4.164;2024-03-02T02:58:27;8.80;99.90
76293;DHT22;67256;51.154;4.164;2024-03-02T03:00:52;8.90;99.90
76293;DHT22;67256;51.154;4.164;2024-03-02T03:03:22;8.90;99.90
76293;DHT22;67256;51.154;4.164;2024-03-02T03:05:48;8.80;99.90
76293;DHT22;67256;51.154;4.164;2024-03-02T03:08:14;8.90;99.90
76293;DHT22;67256;51.154;4.164;2024-03-02T03:10:41;8.90;99.90
76293;DHT22;67256;51.154;4.164;2024-03-02T03:13:07;9.00;99.90
76293;DHT22;67256;51.154;4.164;2024-03-02T03:15:35;9.10;99.90
76293;DHT22;67256;51.154;4.164;2024-03-02T03:18:02;9.20;99.90
76293;DHT22;67256;51.154;4.164;2024-03-02T03:20:30;9.10;99.90
76293;DHT22;67256;51.154;4.164;2024-03-02T03:22:56;9.10;99.90
76293;DHT22;67256;51.154;4.164;2024-03-02T03:25:22;9.20;99.90
76293;DHT22;67256;51.154;4.164;2024-03-02T03:27:48;9.10;99.90
76293;DHT22;67256;51.154;4.164;2024-03-02T03:30:14;9.00;99.90
76293;DHT22;67256;51.154;4.164;2024-03-02T03:32:39;9.10;99.90
76293;DHT22;67256;51.154;4.164;2024-03-02T03:35:06;9.10;99.90
76293;DHT22;67256;51.154;4.164;2024-03-02T03:37:32;9.00;99.90
76293;DHT22;67256;51.154;4.164;2024-03-02T03:40:02;9.00;99.90
76293;DHT22;67256;51.154;4.164;2024-03-02T03:42:28;9.10;99.90
76293;DHT22;67256;51.154;4.164;2024-03-02T03:44:54;9.00;99.90
76293;DHT22;67256;51.154;4.164;2024-03-02T03:47:20;9.00;99.90
76293;DHT22;67256;51.154;4.164;2024-03-02T03:49:46;9.10;99.90
76293;DHT22;67256;51.154;4.164;2024-03-02T03:52:12;9.00;99.90
76293;DHT22;67256;51.154;4.164;2024-03-02T03:54:37;8.90;99.90
76293;DHT22;67256;51.154;4.164;2024-03-02T03:57:04;9.00;99.90
76293;DHT22;67256;51.154;4.164;2024-03-02T03:59:30;9.00;99.90
76293;DHT22;67256;51.154;4.164;2024-03-02T04:01:56;9.00;99.90
76293;DHT22;67256;51.154;4.164;2024-03-02T04:04:22;9.00;99.90
76293;DHT22;67256;51.154;4.164;2024-03-02T04:06:48;9.10;99.90
76293;DHT22;67256;51.154;4.164;2024-03-02T04:09:13;9.20;99.90
76293;DHT22;67256;51.154;4.164;2024-03-02T04:11:39;9.20;99.90
76293;DHT22;67256;51.154;4.164;2024-03-02T04:14:05;9.00;99.90
76293;DHT22;67256;51.154;4.164;2024-03-02T04:16:31;8.90;99.90
76293;DHT22;67256;51.154;4.164;2024-03-02T04:18:57;8.80;99.90
76293;DHT22;67256;51.154;4.164;2024-03-02T04:21:23;8.80;99.90
76293;DHT22;67256;51.154;4.164;2024-03-02T04:23:49;8.90;99.90
76293;DHT22;67256;51.154;4.164;2024-03-02T04:26:15;8.90;99.90
76293;DHT22;67256;51.154;4.164;2024-03-02T04:28:45;9.00;99.90
76293;DHT22;67256;51.154;4.164;2024-03-02T04:31:10;9.00;99.90
76293;DHT22;67256;51.154;4.164;2024-03-02T04:33:36;8.90;99.90
76293;DHT22;67256;51.154;4.164;2024-03-02T04:36:02;8.90;99.90
76293;DHT22;67256;51.154;4.164;2024-03-02T04:38:28;8.90;99.90
76293;DHT22;67256;51.154;4.164;2024-03-02T04:40:54;8.80;99.90
76293;DHT22;67256;51.154;4.164;2024-03-02T04:43:20;8.90;99.90
76293;DHT22;67256;51.154;4.164;2024-03-02T04:45:46;9.00;99.90
76293;DHT22;67256;51.154;4.164;2024-03-02T04:48:12;8.80;99.90
76293;DHT22;67256;51.154;4.164;2024-03-02T04:50:38;8.80;99.90
76293;DHT22;67256;51.154;4.164;2024-03-02T04:53:04;8.80;99.90
76293;DHT22;67256;51.154;4.164;2024-03-02T04:55:29;8.70;99.90
76293;DHT22;67256;51.154;4.164;2024-03-02T04:58:04;8.90;99.90
76293;DHT22;67256;51.154;4.164;2024-03-02T05:00:30;8.90;99.90
76293;DHT22;67256;51.154;4.164;2024-03-02T05:02:57;8.90;99.90
76293;DHT22;67256;51.154;4.164;2024-03-02T05:05:22;8.90;99.90
76293;DHT22;67256;51.154;4.164;2024-03-02T05:07:48;8.80;99.90
76293;DHT22;67256;51.154;4.164;2024-03-02T05:10:14;8.80;99.90
76293;DHT22;67256;51.154;4.164;2024-03-02T05:12:40;8.70;99.90
76293;DHT22;67256;51.154;4.164;2024-03-02T05:15:22;8.70;99.90
76293;DHT22;67256;51.154;4.164;2024-03-02T05:17:47;8.60;99.90
76293;DHT22;67256;51.154;4.164;2024-03-02T05:20:13;8.70;99.90
76293;DHT22;67256;51.154;4.164;2024-03-02T05:22:39;8.90;99.90
76293;DHT22;67256;51.154;4.164;2024-03-02T05:25:06;8.60;99.90
76293;DHT22;67256;51.154;4.164;2024-03-02T05:27:32;8.70;99.90
76293;DHT22;67256;51.154;4.164;2024-03-02T05:29:58;8.70;99.90
76293;DHT22;67256;51.154;4.164;2024-03-02T05:32:24;8.70;99.90
76293;DHT22;67256;51.154;4.164;2024-03-02T05:34:50;8.60;99.90
76293;DHT22;67256;51.154;4.164;2024-03-02T05:37:16;8.60;99.90
76293;DHT22;67256;51.154;4.164;2024-03-02T05:39:42;8.60;99.90
76293;DHT22;67256;51.154;4.164;2024-03-02T05:42:11;8.50;99.90
76293;DHT22;67256;51.154;4.164;2024-03-02T05:44:37;8.50;99.90
76293;DHT22;67256;51.154;4.164;2024-03-02T05:47:03;8.40;99.90
76293;DHT22;67256;51.154;4.164;2024-03-02T05:49:29;8.40;99.90
76293;DHT22;67256;51.154;4.164;2024-03-02T05:51:55;8.40;99.90
76293;DHT22;67256;51.154;4.164;2024-03-02T05:54:21;8.50;99.90
76293;DHT22;67256;51.154;4.164;2024-03-02T05:56:46;8.50;99.90
76293;DHT22;67256;51.154;4.164;2024-03-02T05:59:12;8.50;99.90
76293;DHT22;67256;51.154;4.164;2024-03-02T06:01:42;8.50;99.90
76293;DHT22;67256;51.154;4.164;2024-03-02T06:04:11;8.40;99.90
76293;DHT22;67256;51.154;4.164;2024-03-02T06:06:42;8.30;99.90
76293;DHT22;67256;51.154;4.164;2024-03-02T06:09:08;8.20;99.90
76293;DHT22;67256;51.154;4.164;2024-03-02T06:11:36;8.10;99.90
76293;DHT22;67256;51.154;4.164;2024-03-02T06:14:05;8.10;99.90
76293;DHT22;67256;51.154;4.164;2024-03-02T06:16:32;8.10;99.90
76293;DHT22;67256;51.154;4.164;2024-03-02T06:18:58;8.00;99.90
76293;DHT22;67256;51.154;4.164;2024-03-02T06:21:24;7.80;99.90
76293;DHT22;67256;51.154;4.164;2024-03-02T06:23:50;7.80;99.90
76293;DHT22;67256;51.154;4.164;2024-03-02T06:26:16;7.90;99.90
76293;DHT22;67256;51.154;4.164;2024-03-02T06:28:42;8.00;99.90
76293;DHT22;67256;51.154;4.164;2024-03-02T06:31:10;7.90;99.90
76293;DHT22;67256;51.154;4.164;2024-03-02T06:33:36;8.10;99.90
76293;DHT22;67256;51.154;4.164;2024-03-02T06:36:03;7.90;99.90
76293;DHT22;67256;51.154;4.164;2024-03-02T06:38:28;7.80;99.90
76293;DHT22;67256;51.154;4.164;2024-03-02T06:40:55;7.80;99.90
76293;DHT22;67256;51.154;4.164;2024-03-02T06:43:21;7.90;99.90
76293;DHT22;67256;51.154;4.164;2024-03-02T06:45:50;7.70;99.90
76293;DHT22;67256;51.154;4.164;2024-03-02T06:48:18;7.80;99.90
76293;DHT22;67256;51.154;4.164;2024-03-02T06:50:49;7.90;99.90
76293;DHT22;67256;51.154;4.164;2024-03-02T06:53:15;8.00;99.90
76293;DHT22;67256;51.154;4.164;2024-03-02T06:55:46;8.00;99.90
76293;DHT22;67256;51.154;4.164;2024-03-02T06:58:14;8.00;99.90
76293;DHT22;67256;51.154;4.164;2024-03-02T07:00:43;8.10;99.90
76293;DHT22;67256;51.154;4.164;2024-03-02T07:03:13;8.10;99.90
76293;DHT22;67256;51.154;4.164;2024-03-02T07:05:39;7.90;99.90
76293;DHT22;67256;51.154;4.164;2024-03-02T07:08:05;7.80;99.90
76293;DHT22;67256;51.154;4.164;2024-03-02T07:10:31;7.90;99.90
76293;DHT22;67256;51.154;4.164;2024-03-02T07:12:57;8.10;99.90
76293;DHT22;67256;51.154;4.164;2024-03-02T07:15:22;8.10;99.90
76293;DHT22;67256;51.154;4.164;2024-03-02T07:18:26;8.20;99.90
76293;DHT22;67256;51.154;4.164;2024-03-02T07:20:53;8.10;99.90
76293;DHT22;67256;51.154;4.164;2024-03-02T07:23:18;8.00;99.90
76293;DHT22;67256;51.154;4.164;2024-03-02T07:25:45;7.90;99.90
76293;DHT22;67256;51.154;4.164;2024-03-02T07:28:11;7.80;99.90
76293;DHT22;67256;51.154;4.164;2024-03-02T07:30:37;7.90;99.90
76293;DHT22;67256;51.154;4.164;2024-03-02T07:33:04;7.90;99.90
76293;DHT22;67256;51.154;4.164;2024-03-02T07:35:30;8.00;99.90
76293;DHT22;67256;51.154;4.164;2024-03-02T07:37:57;8.00;99.90
76293;DHT22;67256;51.154;4.164;2024-03-02T07:40:23;8.20;99.90
76293;DHT22;67256;51.154;4.164;2024-03-02T07:42:50;8.30;99.90
76293;DHT22;67256;51.154;4.164;2024-03-02T07:45:16;8.30;99.90
76293;DHT22;67256;51.154;4.164;2024-03-02T07:47:41;8.20;99.90
76293;DHT22;67256;51.154;4.164;2024-03-02T07:50:07;8.20;99.90
76293;DHT22;67256;51.154;4.164;2024-03-02T07:52:33;8.30;99.90
76293;DHT22;67256;51.154;4.164;2024-03-02T07:54:59;8.20;99.90
76293;DHT22;67256;51.154;4.164;2024-03-02T07:57:25;8.20;99.90
76293;DHT22;67256;51.154;4.164;2024-03-02T07:59:51;8.00;99.90
76293;DHT22;67256;51.154;4.164;2024-03-02T08:02:17;8.10;99.90
76293;DHT22;67256;51.154;4.164;2024-03-02T08:04:43;8.20;99.90
76293;DHT22;67256;51.154;4.164;2024-03-02T08:07:09;8.10;99.90
76293;DHT22;67256;51.154;4.164;2024-03-02T08:09:34;8.20;99.90
76293;DHT22;67256;51.154;4.164;2024-03-02T08:12:00;8.30;99.90
76293;DHT22;67256;51.154;4.164;2024-03-02T08:14:26;8.40;99.90
76293;DHT22;67256;51.154;4.164;2024-03-02T08:16:52;8.20;99.90
76293;DHT22;67256;51.154;4.164;2024-03-02T08:19:17;8.30;99.90
76293;DHT22;67256;51.154;4.164;2024-03-02T08:21:43;8.20;99.90
76293;DHT22;67256;51.154;4.164;2024-03-02T08:24:10;8.30;99.90
76293;DHT22;67256;51.154;4.164;2024-03-02T08:26:36;8.30;99.90
76293;DHT22;67256;51.154;4.164;2024-03-02T08:29:01;8.40;99.90
76293;DHT22;67256;51.154;4.164;2024-03-02T08:31:29;8.40;99.90
76293;DHT22;67256;51.154;4.164;2024-03-02T08:33:55;8.40;99.90
76293;DHT22;67256;51.154;4.164;2024-03-02T08:36:22;8.30;99.90
76293;DHT22;67256;51.154;4.164;2024-03-02T08:38:49;8.40;99.90
76293;DHT22;67256;51.154;4.164;2024-03-02T08:41:16;8.50;99.90
76293;DHT22;67256;51.154;4.164;2024-03-02T08:43:42;8.60;99.90
76293;DHT22;67256;51.154;4.164;2024-03-02T08:46:08;8.60;99.90
76293;DHT22;67256;51.154;4.164;2024-03-02T08:48:34;8.70;99.90
76293;DHT22;67256;51.154;4.164;2024-03-02T08:51:00;8.70;99.90
76293;DHT22;67256;51.154;4.164;2024-03-02T08:53:26;8.80;99.90
76293;DHT22;67256;51.154;4.164;2024-03-02T08:55:52;8.90;99.90
76293;DHT22;67256;51.154;4.164;2024-03-02T08:58:17;8.90;99.90
76293;DHT22;67256;51.154;4.164;2024-03-02T09:00:43;9.00;99.90
76293;DHT22;67256;51.154;4.164;2024-03-02T09:03:10;9.00;99.90
76293;DHT22;67256;51.154;4.164;2024-03-02T09:05:36;8.80;99.90
76293;DHT22;67256;51.154;4.164;2024-03-02T09:08:01;8.80;99.90
76293;DHT22;67256;51.154;4.164;2024-03-02T09:10:29;9.00;99.90
76293;DHT22;67256;51.154;4.164;2024-03-02T09:12:56;9.10;99.90
76293;DHT22;67256;51.154;4.164;2024-03-02T09:15:21;9.20;99.90
76293;DHT22;67256;51.154;4.164;2024-03-02T09:17:47;9.20;99.90
76293;DHT22;67256;51.154;4.164;2024-03-02T09:20:13;9.20;99.90
76293;DHT22;67256;51.154;4.164;2024-03-02T09:22:39;9.10;99.90
76293;DHT22;67256;51.154;4.164;2024-03-02T09:25:05;9.00;99.90
76293;DHT22;67256;51.154;4.164;2024-03-02T09:27:36;9.10;99.90
76293;DHT22;67256;51.154;4.164;2024-03-02T09:30:04;9.20;99.90
76293;DHT22;67256;51.154;4.164;2024-03-02T09:32:31;9.20;99.90
76293;DHT22;67256;51.154;4.164;2024-03-02T09:34:56;9.40;99.90
76293;DHT22;67256;51.154;4.164;2024-03-02T09:37:23;9.50;99.90
76293;DHT22;67256;51.154;4.164;2024-03-02T09:39:49;9.70;99.90
76293;DHT22;67256;51.154;4.164;2024-03-02T09:42:15;9.70;99.90
76293;DHT22;67256;51.154;4.164;2024-03-02T09:44:42;9.80;99.90
76293;DHT22;67256;51.154;4.164;2024-03-02T09:47:08;9.70;99.90
76293;DHT22;67256;51.154;4.164;2024-03-02T09:49:34;9.80;99.90
76293;DHT22;67256;51.154;4.164;2024-03-02T09:52:00;9.80;99.90
76293;DHT22;67256;51.154;4.164;2024-03-02T09:54:26;9.80;99.90
76293;DHT22;67256;51.154;4.164;2024-03-02T09:56:52;9.90;99.90
76293;DHT22;67256;51.154;4.164;2024-03-02T09:59:18;10.00;99.90
76293;DHT22;67256;51.154;4.164;2024-03-02T10:02:02;9.90;99.90
76293;DHT22;67256;51.154;4.164;2024-03-02T10:04:29;9.90;99.90
76293;DHT22;67256;51.154;4.164;2024-03-02T10:07:15;10.10;99.90
76293;DHT22;67256;51.154;4.164;2024-03-02T10:09:44;10.10;99.90
76293;DHT22;67256;51.154;4.164;2024-03-02T10:12:11;10.10;99.90
76293;DHT22;67256;51.154;4.164;2024-03-02T10:14:38;10.30;99.90
76293;DHT22;67256;51.154;4.164;2024-03-02T10:17:05;10.20;99.90
76293;DHT22;67256;51.154;4.164;2024-03-02T10:19:31;10.30;99.90
76293;DHT22;67256;51.154;4.164;2024-03-02T10:22:04;10.40;99.90
76293;DHT22;67256;51.154;4.164;2024-03-02T10:24:40;10.30;99.90
76293;DHT22;67256;51.154;4.164;2024-03-02T10:27:08;10.10;99.90
76293;DHT22;67256;51.154;4.164;2024-03-02T10:29:37;10.20;99.90
76293;DHT22;67256;51.154;4.164;2024-03-02T10:32:04;10.30;99.90
76293;DHT22;67256;51.154;4.164;2024-03-02T10:34:31;10.30;99.90
76293;DHT22;67256;51.154;4.164;2024-03-02T10:36:56;10.30;99.90
76293;DHT22;67256;51.154;4.164;2024-03-02T10:39:24;10.30;99.90
76293;DHT22;67256;51.154;4.164;2024-03-02T10:41:52;10.40;99.90
76293;DHT22;67256;51.154;4.164;2024-03-02T10:44:19;10.40;99.90
76293;DHT22;67256;51.154;4.164;2024-03-02T10:46:45;10.40;99.90
76293;DHT22;67256;51.154;4.164;2024-03-02T10:49:11;10.50;99.90
76293;DHT22;67256;51.154;4.164;2024-03-02T10:51:37;10.40;99.90
76293;DHT22;67256;51.154;4.164;2024-03-02T10:54:04;10.60;99.90
76293;DHT22;67256;51.154;4.164;2024-03-02T10:56:44;10.70;99.90
76293;DHT22;67256;51.154;4.164;2024-03-02T10:59:44;10.80;99.90
76293;DHT22;67256;51.154;4.164;2024-03-02T11:02:04;11.00;99.70
76293;DHT22;67256;51.154;4.164;2024-03-02T11:04:32;11.20;99.80
76293;DHT22;67256;51.154;4.164;2024-03-02T11:07:04;11.20;99.20
76293;DHT22;67256;51.154;4.164;2024-03-02T11:09:40;11.40;99.10
76293;DHT22;67256;51.154;4.164;2024-03-02T11:12:12;11.50;98.90
76293;DHT22;67256;51.154;4.164;2024-03-02T11:14:41;11.40;98.50
76293;DHT22;67256;51.154;4.164;2024-03-02T11:17:13;11.30;98.30
76293;DHT22;67256;51.154;4.164;2024-03-02T11:19:41;11.30;98.30
76293;DHT22;67256;51.154;4.164;2024-03-02T11:22:09;11.30;98.60
76293;DHT22;67256;51.154;4.164;2024-03-02T11:24:36;11.30;97.90
76293;DHT22;67256;51.154;4.164;2024-03-02T11:27:03;11.40;97.50
76293;DHT22;67256;51.154;4.164;2024-03-02T11:32:22;11.60;97.60
76293;DHT22;67256;51.154;4.164;2024-03-02T11:34:51;11.70;97.20
76293;DHT22;67256;51.154;4.164;2024-03-02T11:37:19;11.60;97.20
76293;DHT22;67256;51.154;4.164;2024-03-02T11:39:50;11.60;96.80
76293;DHT22;67256;51.154;4.164;2024-03-02T11:42:16;11.70;96.70
76293;DHT22;67256;51.154;4.164;2024-03-02T11:44:46;11.60;96.90
76293;DHT22;67256;51.154;4.164;2024-03-02T11:47:14;11.70;96.20
76293;DHT22;67256;51.154;4.164;2024-03-02T11:49:43;11.80;97.00
76293;DHT22;67256;51.154;4.164;2024-03-02T11:52:14;11.90;96.60
76293;DHT22;67256;51.154;4.164;2024-03-02T11:54:45;12.00;95.00
76293;DHT22;67256;51.154;4.164;2024-03-02T11:57:18;11.90;95.80
76293;DHT22;67256;51.154;4.164;2024-03-02T11:59:45;11.90;96.00
76293;DHT22;67256;51.154;4.164;2024-03-02T12:02:20;12.10;96.10
76293;DHT22;67256;51.154;4.164;2024-03-02T12:04:47;12.10;95.40
76293;DHT22;67256;51.154;4.164;2024-03-02T12:07:22;12.10;95.60
76293;DHT22;67256;51.154;4.164;2024-03-02T12:09:49;12.00;95.30
76293;DHT22;67256;51.154;4.164;2024-03-02T12:12:24;12.10;95.20
76293;DHT22;67256;51.154;4.164;2024-03-02T12:14:51;12.00;95.20
76293;DHT22;67256;51.154;4.164;2024-03-02T12:17:18;11.90;95.60
76293;DHT22;67256;51.154;4.164;2024-03-02T12:19:44;11.90;96.00
76293;DHT22;67256;51.154;4.164;2024-03-02T12:22:11;11.90;95.60
76293;DHT22;67256;51.154;4.164;2024-03-02T12:24:38;11.90;95.90
76293;DHT22;67256;51.154;4.164;2024-03-02T12:27:05;11.90;95.60
76293;DHT22;67256;51.154;4.164;2024-03-02T12:29:31;11.90;96.00
76293;DHT22;67256;51.154;4.164;2024-03-02T12:31:57;11.90;96.00
76293;DHT22;67256;51.154;4.164;2024-03-02T12:34:22;12.00;96.30
76293;DHT22;67256;51.154;4.164;2024-03-02T12:36:49;12.10;96.00
76293;DHT22;67256;51.154;4.164;2024-03-02T12:39:19;12.10;96.60
76293;DHT22;67256;51.154;4.164;2024-03-02T12:41:46;12.20;96.20
76293;DHT22;67256;51.154;4.164;2024-03-02T12:44:11;12.20;96.40
76293;DHT22;67256;51.154;4.164;2024-03-02T12:46:37;12.30;96.30
76293;DHT22;67256;51.154;4.164;2024-03-02T12:49:11;12.40;96.50
76293;DHT22;67256;51.154;4.164;2024-03-02T12:51:39;12.50;96.20
76293;DHT22;67256;51.154;4.164;2024-03-02T12:54:10;12.40;95.70
76293;DHT22;67256;51.154;4.164;2024-03-02T12:56:37;12.40;96.20
76293;DHT22;67256;51.154;4.164;2024-03-02T12:59:04;12.60;96.30
76293;DHT22;67256;51.154;4.164;2024-03-02T13:01:29;12.50;96.00
76293;DHT22;67256;51.154;4.164;2024-03-02T13:03:58;12.50;95.50
76293;DHT22;67256;51.154;4.164;2024-03-02T13:06:24;12.50;95.80
76293;DHT22;67256;51.154;4.164;2024-03-02T13:08:53;12.40;96.20
76293;DHT22;67256;51.154;4.164;2024-03-02T13:11:19;12.30;96.10
76293;DHT22;67256;51.154;4.164;2024-03-02T13:13:46;12.30;96.00
76293;DHT22;67256;51.154;4.164;2024-03-02T13:16:12;12.30;96.20
76293;DHT22;67256;51.154;4.164;2024-03-02T13:18:39;12.30;96.20
76293;DHT22;67256;51.154;4.164;2024-03-02T13:21:08;12.40;95.60
76293;DHT22;67256;51.154;4.164;2024-03-02T13:23:34;12.40;95.20
76293;DHT22;67256;51.154;4.164;2024-03-02T13:26:00;12.30;95.70
76293;DHT22;67256;51.154;4.164;2024-03-02T13:28:27;12.30;95.70
76293;DHT22;67256;51.154;4.164;2024-03-02T13:30:52;12.40;95.40
76293;DHT22;67256;51.154;4.164;2024-03-02T13:33:18;12.50;95.50
76293;DHT22;67256;51.154;4.164;2024-03-02T13:35:53;12.40;95.00
76293;DHT22;67256;51.154;4.164;2024-03-02T13:38:19;12.40;95.40
76293;DHT22;67256;51.154;4.164;2024-03-02T13:40:46;12.30;95.70
76293;DHT22;67256;51.154;4.164;2024-03-02T13:43:17;12.20;95.70
76293;DHT22;67256;51.154;4.164;2024-03-02T13:45:43;12.20;95.60
76293;DHT22;67256;51.154;4.164;2024-03-02T13:48:08;12.20;95.60
76293;DHT22;67256;51.154;4.164;2024-03-02T13:50:35;12.10;95.90
76293;DHT22;67256;51.154;4.164;2024-03-02T13:53:01;12.00;95.70
76293;DHT22;67256;51.154;4.164;2024-03-02T13:55:27;12.00;95.90
76293;DHT22;67256;51.154;4.164;2024-03-02T13:57:52;12.10;95.80
76293;DHT22;67256;51.154;4.164;2024-03-02T14:00:19;12.00;95.90
76293;DHT22;67256;51.154;4.164;2024-03-02T14:02:48;12.10;95.70
76293;DHT22;67256;51.154;4.164;2024-03-02T14:05:16;12.20;95.80
76293;DHT22;67256;51.154;4.164;2024-03-02T14:07:43;12.20;95.90
76293;DHT22;67256;51.154;4.164;2024-03-02T14:10:09;12.30;95.70
76293;DHT22;67256;51.154;4.164;2024-03-02T14:12:36;12.40;95.90
76293;DHT22;67256;51.154;4.164;2024-03-02T14:15:02;12.40;95.80
76293;DHT22;67256;51.154;4.164;2024-03-02T14:17:29;12.40;96.10
76293;DHT22;67256;51.154;4.164;2024-03-02T14:19:57;12.40;96.20
76293;DHT22;67256;51.154;4.164;2024-03-02T14:22:24;12.50;96.30
76293;DHT22;67256;51.154;4.164;2024-03-02T14:24:51;12.50;97.10
76293;DHT22;67256;51.154;4.164;2024-03-02T14:27:17;12.50;97.50
76293;DHT22;67256;51.154;4.164;2024-03-02T14:29:43;12.60;97.90
76293;DHT22;67256;51.154;4.164;2024-03-02T14:32:09;12.50;98.10
76293;DHT22;67256;51.154;4.164;2024-03-02T14:34:35;12.60;98.20
76293;DHT22;67256;51.154;4.164;2024-03-02T14:37:01;12.70;98.40
76293;DHT22;67256;51.154;4.164;2024-03-02T14:39:27;12.60;98.80
76293;DHT22;67256;51.154;4.164;2024-03-02T14:41:55;12.70;99.00
76293;DHT22;67256;51.154;4.164;2024-03-02T14:44:22;12.80;99.20
76293;DHT22;67256;51.154;4.164;2024-03-02T14:46:48;12.80;99.10
76293;DHT22;67256;51.154;4.164;2024-03-02T14:49:14;12.60;99.50
76293;DHT22;67256;51.154;4.164;2024-03-02T14:51:40;12.60;99.90
76293;DHT22;67256;51.154;4.164;2024-03-02T14:54:06;12.70;99.90
76293;DHT22;67256;51.154;4.164;2024-03-02T14:56:32;12.50;99.90
76293;DHT22;67256;51.154;4.164;2024-03-02T14:58:57;12.30;99.90
76293;DHT22;67256;51.154;4.164;2024-03-02T15:01:23;12.10;99.90
76293;DHT22;67256;51.154;4.164;2024-03-02T15:03:50;12.10;99.90
76293;DHT22;67256;51.154;4.164;2024-03-02T15:06:16;12.10;99.90
76293;DHT22;67256;51.154;4.164;2024-03-02T15:08:42;12.20;99.90
76293;DHT22;67256;51.154;4.164;2024-03-02T15:11:09;12.10;99.90
76293;DHT22;67256;51.154;4.164;2024-03-02T15:13:35;12.10;99.90
76293;DHT22;67256;51.154;4.164;2024-03-02T15:16:01;12.20;99.90
76293;DHT22;67256;51.154;4.164;2024-03-02T15:18:26;12.20;99.90
76293;DHT22;67256;51.154;4.164;2024-03-02T15:20:53;12.10;99.90
76293;DHT22;67256;51.154;4.164;2024-03-02T15:23:19;12.00;99.90
76293;DHT22;67256;51.154;4.164;2024-03-02T15:25:44;11.90;99.90
76293;DHT22;67256;51.154;4.164;2024-03-02T15:28:10;11.90;99.90
76293;DHT22;67256;51.154;4.164;2024-03-02T15:30:36;12.00;99.90
76293;DHT22;67256;51.154;4.164;2024-03-02T15:33:02;11.80;99.90
76293;DHT22;67256;51.154;4.164;2024-03-02T15:35:28;11.80;99.90
76293;DHT22;67256;51.154;4.164;2024-03-02T15:37:54;11.80;99.90
76293;DHT22;67256;51.154;4.164;2024-03-02T15:40:20;11.90;99.90
76293;DHT22;67256;51.154;4.164;2024-03-02T15:42:49;12.00;99.90
76293;DHT22;67256;51.154;4.164;2024-03-02T15:45:14;12.10;99.90